sensor_id;sensor_type;location;lat;lon;timestamp;P1;durP1;ratioP1;P2;durP2;ratioP2
39898;SDS011;25571;47.876;10.642;2023-03-25T00:00:53;0.77;;;0.50;;
39898;SDS011;25571;47.876;10.642;2023-03-25T00:03:21;0.60;;;0.50;;
39898;SDS011;25571;47.876;10.642;2023-03-25T00:05:48;0.60;;;0.50;;
39898;SDS011;25571;47.876;10.642;2023-03-25T00:08:13;0.77;;;0.60;;
39898;SDS011;25571;47.876;10.642;2023-03-25T00:10:39;1.75;;;0.50;;
39898;SDS011;25571;47.876;10.642;2023-03-25T00:13:05;0.68;;;0.40;;
39898;SDS011;25571;47.876;10.642;2023-03-25T00:15:32;1.40;;;0.50;;
39898;SDS011;25571;47.876;10.642;2023-03-25T00:18:01;2.00;;;1.15;;
39898;SDS011;25571;47.876;10.642;2023-03-25T00:22:52;2.47;;;0.55;;
39898;SDS011;25571;47.876;10.642;2023-03-25T00:25:18;2.20;;;0.47;;
39898;SDS011;25571;47.876;10.642;2023-03-25T00:27:45;0.85;;;0.60;;
39898;SDS011;25571;47.876;10.642;2023-03-25T00:30:16;1.55;;;0.70;;
39898;SDS011;25571;47.876;10.642;2023-03-25T00:32:43;4.72;;;1.10;;
39898;SDS011;25571;47.876;10.642;2023-03-25T00:35:16;2.83;;;0.65;;
39898;SDS011;25571;47.876;10.642;2023-03-25T00:37:44;1.50;;;0.70;;
39898;SDS011;25571;47.876;10.642;2023-03-25T00:40:11;1.75;;;0.57;;
39898;SDS011;25571;47.876;10.642;2023-03-25T00:42:38;3.45;;;0.60;;
39898;SDS011;25571;47.876;10.642;2023-03-25T00:45:14;0.88;;;0.82;;
39898;SDS011;25571;47.876;10.642;2023-03-25T00:47:42;1.05;;;0.50;;
39898;SDS011;25571;47.876;10.642;2023-03-25T00:50:08;1.02;;;0.60;;
39898;SDS011;25571;47.876;10.642;2023-03-25T00:52:34;0.90;;;0.55;;
39898;SDS011;25571;47.876;10.642;2023-03-25T00:55:00;0.40;;;0.40;;
39898;SDS011;25571;47.876;10.642;2023-03-25T00:57:26;0.57;;;0.50;;
39898;SDS011;25571;47.876;10.642;2023-03-25T00:59:52;1.42;;;0.50;;
39898;SDS011;25571;47.876;10.642;2023-03-25T01:02:18;1.70;;;0.73;;
39898;SDS011;25571;47.876;10.642;2023-03-25T01:04:45;0.70;;;0.50;;
39898;SDS011;25571;47.876;10.642;2023-03-25T01:07:13;1.30;;;0.50;;
39898;SDS011;25571;47.876;10.642;2023-03-25T01:09:40;1.95;;;0.52;;
39898;SDS011;25571;47.876;10.642;2023-03-25T01:12:06;0.40;;;0.40;;
39898;SDS011;25571;47.876;10.642;2023-03-25T01:14:32;0.85;;;0.43;;
39898;SDS011;25571;47.876;10.642;2023-03-25T01:16:58;2.10;;;0.60;;
39898;SDS011;25571;47.876;10.642;2023-03-25T01:19:24;1.00;;;0.70;;
39898;SDS011;25571;47.876;10.642;2023-03-25T01:21:50;1.05;;;0.88;;
39898;SDS011;25571;47.876;10.642;2023-03-25T01:24:16;0.82;;;0.57;;
39898;SDS011;25571;47.876;10.642;2023-03-25T01:26:42;2.17;;;0.73;;
39898;SDS011;25571;47.876;10.642;2023-03-25T01:29:09;1.65;;;0.50;;
39898;SDS011;25571;47.876;10.642;2023-03-25T01:31:35;1.02;;;0.60;;
39898;SDS011;25571;47.876;10.642;2023-03-25T01:34:01;2.05;;;0.60;;
39898;SDS011;25571;47.876;10.642;2023-03-25T01:36:27;1.15;;;0.50;;
39898;SDS011;25571;47.876;10.642;2023-03-25T01:38:56;1.67;;;0.50;;
39898;SDS011;25571;47.876;10.642;2023-03-25T01:41:23;2.67;;;0.70;;
39898;SDS011;25571;47.876;10.642;2023-03-25T01:46:43;1.42;;;0.50;;
39898;SDS011;25571;47.876;10.642;2023-03-25T01:49:12;1.48;;;0.70;;
39898;SDS011;25571;47.876;10.642;2023-03-25T01:51:48;2.67;;;0.63;;
39898;SDS011;25571;47.876;10.642;2023-03-25T01:54:19;0.90;;;0.30;;
39898;SDS011;25571;47.876;10.642;2023-03-25T01:56:46;1.13;;;0.55;;
39898;SDS011;25571;47.876;10.642;2023-03-25T01:59:14;0.98;;;0.55;;
39898;SDS011;25571;47.876;10.642;2023-03-25T02:01:42;3.03;;;0.70;;
39898;SDS011;25571;47.876;10.642;2023-03-25T02:04:12;1.80;;;0.82;;
39898;SDS011;25571;47.876;10.642;2023-03-25T02:06:48;2.05;;;0.65;;
39898;SDS011;25571;47.876;10.642;2023-03-25T02:09:17;1.35;;;0.70;;
39898;SDS011;25571;47.876;10.642;2023-03-25T02:11:45;1.10;;;0.50;;
39898;SDS011;25571;47.876;10.642;2023-03-25T02:14:11;1.85;;;0.80;;
39898;SDS011;25571;47.876;10.642;2023-03-25T02:27:49;2.05;;;1.00;;
39898;SDS011;25571;47.876;10.642;2023-03-25T02:33:29;2.95;;;0.50;;
39898;SDS011;25571;47.876;10.642;2023-03-25T02:46:59;3.55;;;0.82;;
39898;SDS011;25571;47.876;10.642;2023-03-25T02:49:29;0.68;;;0.30;;
39898;SDS011;25571;47.876;10.642;2023-03-25T02:52:16;2.00;;;0.50;;
39898;SDS011;25571;47.876;10.642;2023-03-25T02:54:48;1.85;;;0.55;;
39898;SDS011;25571;47.876;10.642;2023-03-25T02:57:17;0.90;;;0.40;;
39898;SDS011;25571;47.876;10.642;2023-03-25T02:59:46;1.92;;;0.68;;
39898;SDS011;25571;47.876;10.642;2023-03-25T03:02:13;2.58;;;0.50;;
39898;SDS011;25571;47.876;10.642;2023-03-25T03:04:51;1.40;;;0.65;;
39898;SDS011;25571;47.876;10.642;2023-03-25T03:07:23;1.20;;;0.45;;
39898;SDS011;25571;47.876;10.642;2023-03-25T03:09:56;2.58;;;0.75;;
39898;SDS011;25571;47.876;10.642;2023-03-25T03:12:56;0.55;;;0.32;;
39898;SDS011;25571;47.876;10.642;2023-03-25T03:15:30;1.58;;;0.40;;
39898;SDS011;25571;47.876;10.642;2023-03-25T03:21:25;4.43;;;0.75;;
39898;SDS011;25571;47.876;10.642;2023-03-25T03:24:04;1.67;;;0.57;;
39898;SDS011;25571;47.876;10.642;2023-03-25T03:26:38;2.05;;;0.68;;
39898;SDS011;25571;47.876;10.642;2023-03-25T03:34:24;1.00;;;0.38;;
39898;SDS011;25571;47.876;10.642;2023-03-25T03:36:56;4.80;;;0.65;;
39898;SDS011;25571;47.876;10.642;2023-03-25T03:39:30;2.22;;;0.80;;
39898;SDS011;25571;47.876;10.642;2023-03-25T03:42:14;1.30;;;0.68;;
39898;SDS011;25571;47.876;10.642;2023-03-25T03:44:40;1.42;;;0.60;;
39898;SDS011;25571;47.876;10.642;2023-03-25T03:47:11;2.53;;;0.80;;
39898;SDS011;25571;47.876;10.642;2023-03-25T03:49:43;1.92;;;0.55;;
39898;SDS011;25571;47.876;10.642;2023-03-25T03:52:19;1.60;;;0.40;;
39898;SDS011;25571;47.876;10.642;2023-03-25T03:54:54;3.03;;;0.70;;
39898;SDS011;25571;47.876;10.642;2023-03-25T03:57:48;1.92;;;0.50;;
39898;SDS011;25571;47.876;10.642;2023-03-25T04:00:23;1.80;;;0.50;;
39898;SDS011;25571;47.876;10.642;2023-03-25T04:03:27;1.92;;;0.52;;
39898;SDS011;25571;47.876;10.642;2023-03-25T04:05:52;1.70;;;0.40;;
39898;SDS011;25571;47.876;10.642;2023-03-25T04:08:28;1.50;;;0.40;;
39898;SDS011;25571;47.876;10.642;2023-03-25T04:11:00;2.65;;;0.65;;
39898;SDS011;25571;47.876;10.642;2023-03-25T04:13:33;1.20;;;0.40;;
39898;SDS011;25571;47.876;10.642;2023-03-25T04:16:02;2.33;;;0.40;;
39898;SDS011;25571;47.876;10.642;2023-03-25T04:18:28;1.80;;;0.70;;
39898;SDS011;25571;47.876;10.642;2023-03-25T04:20:54;0.43;;;0.30;;
39898;SDS011;25571;47.876;10.642;2023-03-25T04:23:20;3.00;;;0.45;;
39898;SDS011;25571;47.876;10.642;2023-03-25T04:25:45;2.63;;;0.63;;
39898;SDS011;25571;47.876;10.642;2023-03-25T04:28:13;1.23;;;0.70;;
39898;SDS011;25571;47.876;10.642;2023-03-25T04:30:42;1.93;;;0.30;;
39898;SDS011;25571;47.876;10.642;2023-03-25T04:33:11;1.10;;;0.20;;
39898;SDS011;25571;47.876;10.642;2023-03-25T04:35:37;1.05;;;0.57;;
39898;SDS011;25571;47.876;10.642;2023-03-25T04:38:04;1.08;;;0.30;;
39898;SDS011;25571;47.876;10.642;2023-03-25T04:40:30;0.60;;;0.30;;
39898;SDS011;25571;47.876;10.642;2023-03-25T04:42:56;1.30;;;0.52;;
39898;SDS011;25571;47.876;10.642;2023-03-25T04:45:22;0.50;;;0.30;;
39898;SDS011;25571;47.876;10.642;2023-03-25T04:47:49;2.67;;;0.32;;
39898;SDS011;25571;47.876;10.642;2023-03-25T04:50:28;1.42;;;0.40;;
39898;SDS011;25571;47.876;10.642;2023-03-25T04:52:54;0.75;;;0.75;;
39898;SDS011;25571;47.876;10.642;2023-03-25T04:55:26;1.50;;;0.40;;
39898;SDS011;25571;47.876;10.642;2023-03-25T04:57:53;0.95;;;0.20;;
39898;SDS011;25571;47.876;10.642;2023-03-25T05:00:20;0.30;;;0.20;;
39898;SDS011;25571;47.876;10.642;2023-03-25T05:02:51;0.75;;;0.50;;
39898;SDS011;25571;47.876;10.642;2023-03-25T05:05:19;1.45;;;0.20;;
39898;SDS011;25571;47.876;10.642;2023-03-25T05:07:50;0.77;;;0.20;;
39898;SDS011;25571;47.876;10.642;2023-03-25T05:10:18;1.00;;;0.28;;
39898;SDS011;25571;47.876;10.642;2023-03-25T05:12:48;1.17;;;0.20;;
39898;SDS011;25571;47.876;10.642;2023-03-25T05:15:14;0.15;;;0.10;;
39898;SDS011;25571;47.876;10.642;2023-03-25T05:20:08;0.20;;;0.20;;
39898;SDS011;25571;47.876;10.642;2023-03-25T05:22:35;0.10;;;0.10;;
39898;SDS011;25571;47.876;10.642;2023-03-25T05:25:06;1.05;;;0.20;;
39898;SDS011;25571;47.876;10.642;2023-03-25T05:27:33;0.73;;;0.20;;
39898;SDS011;25571;47.876;10.642;2023-03-25T05:29:59;0.17;;;0.17;;
39898;SDS011;25571;47.876;10.642;2023-03-25T05:32:26;0.43;;;0.30;;
39898;SDS011;25571;47.876;10.642;2023-03-25T05:34:59;0.20;;;0.20;;
39898;SDS011;25571;47.876;10.642;2023-03-25T05:37:26;0.40;;;0.40;;
39898;SDS011;25571;47.876;10.642;2023-03-25T05:39:52;0.22;;;0.22;;
39898;SDS011;25571;47.876;10.642;2023-03-25T05:42:18;0.90;;;0.40;;
39898;SDS011;25571;47.876;10.642;2023-03-25T05:47:18;0.60;;;0.38;;
39898;SDS011;25571;47.876;10.642;2023-03-25T05:49:46;1.85;;;0.57;;
39898;SDS011;25571;47.876;10.642;2023-03-25T05:52:15;0.32;;;0.30;;
39898;SDS011;25571;47.876;10.642;2023-03-25T05:54:42;0.40;;;0.40;;
39898;SDS011;25571;47.876;10.642;2023-03-25T05:57:09;0.52;;;0.30;;
39898;SDS011;25571;47.876;10.642;2023-03-25T05:59:35;0.80;;;0.30;;
39898;SDS011;25571;47.876;10.642;2023-03-25T06:02:05;0.40;;;0.20;;
39898;SDS011;25571;47.876;10.642;2023-03-25T06:04:35;0.25;;;0.20;;
39898;SDS011;25571;47.876;10.642;2023-03-25T06:07:04;0.30;;;0.30;;
39898;SDS011;25571;47.876;10.642;2023-03-25T06:09:33;0.20;;;0.20;;
39898;SDS011;25571;47.876;10.642;2023-03-25T06:11:59;0.22;;;0.20;;
39898;SDS011;25571;47.876;10.642;2023-03-25T06:14:25;0.40;;;0.40;;
39898;SDS011;25571;47.876;10.642;2023-03-25T06:16:51;0.20;;;0.20;;
39898;SDS011;25571;47.876;10.642;2023-03-25T06:19:16;0.40;;;0.10;;
39898;SDS011;25571;47.876;10.642;2023-03-25T06:21:42;0.88;;;0.30;;
39898;SDS011;25571;47.876;10.642;2023-03-25T06:24:08;0.30;;;0.30;;
39898;SDS011;25571;47.876;10.642;2023-03-25T06:26:33;0.20;;;0.20;;
39898;SDS011;25571;47.876;10.642;2023-03-25T06:28:59;0.20;;;0.20;;
39898;SDS011;25571;47.876;10.642;2023-03-25T06:31:25;0.45;;;0.20;;
39898;SDS011;25571;47.876;10.642;2023-03-25T06:33:51;1.92;;;0.20;;
39898;SDS011;25571;47.876;10.642;2023-03-25T06:36:18;0.20;;;0.20;;
39898;SDS011;25571;47.876;10.642;2023-03-25T06:38:48;0.35;;;0.20;;
39898;SDS011;25571;47.876;10.642;2023-03-25T06:41:15;0.50;;;0.13;;
39898;SDS011;25571;47.876;10.642;2023-03-25T06:43:44;0.30;;;0.30;;
39898;SDS011;25571;47.876;10.642;2023-03-25T06:46:12;1.80;;;0.73;;
39898;SDS011;25571;47.876;10.642;2023-03-25T06:48:38;0.30;;;0.30;;
39898;SDS011;25571;47.876;10.642;2023-03-25T06:51:04;1.20;;;0.20;;
39898;SDS011;25571;47.876;10.642;2023-03-25T06:53:30;0.88;;;0.25;;
39898;SDS011;25571;47.876;10.642;2023-03-25T06:55:56;0.13;;;0.13;;
39898;SDS011;25571;47.876;10.642;2023-03-25T06:58:22;0.32;;;0.25;;
39898;SDS011;25571;47.876;10.642;2023-03-25T07:00:54;0.20;;;0.20;;
39898;SDS011;25571;47.876;10.642;2023-03-25T07:03:20;0.40;;;0.17;;
39898;SDS011;25571;47.876;10.642;2023-03-25T07:05:46;0.20;;;0.20;;
39898;SDS011;25571;47.876;10.642;2023-03-25T07:08:12;0.60;;;0.30;;
39898;SDS011;25571;47.876;10.642;2023-03-25T07:10:39;0.73;;;0.20;;
39898;SDS011;25571;47.876;10.642;2023-03-25T07:13:04;0.20;;;0.20;;
39898;SDS011;25571;47.876;10.642;2023-03-25T07:15:30;0.20;;;0.20;;
39898;SDS011;25571;47.876;10.642;2023-03-25T07:17:55;0.52;;;0.30;;
39898;SDS011;25571;47.876;10.642;2023-03-25T07:20:21;0.20;;;0.20;;
39898;SDS011;25571;47.876;10.642;2023-03-25T07:22:47;1.20;;;0.35;;
39898;SDS011;25571;47.876;10.642;2023-03-25T07:25:12;0.20;;;0.20;;
39898;SDS011;25571;47.876;10.642;2023-03-25T07:27:38;0.63;;;0.20;;
39898;SDS011;25571;47.876;10.642;2023-03-25T07:30:04;0.77;;;0.20;;
39898;SDS011;25571;47.876;10.642;2023-03-25T07:32:31;0.30;;;0.25;;
39898;SDS011;25571;47.876;10.642;2023-03-25T07:34:57;1.42;;;0.20;;
39898;SDS011;25571;47.876;10.642;2023-03-25T07:37:23;0.38;;;0.20;;
39898;SDS011;25571;47.876;10.642;2023-03-25T07:39:48;0.55;;;0.20;;
39898;SDS011;25571;47.876;10.642;2023-03-25T07:42:14;0.25;;;0.10;;
39898;SDS011;25571;47.876;10.642;2023-03-25T07:44:39;0.40;;;0.10;;
39898;SDS011;25571;47.876;10.642;2023-03-25T07:47:05;0.90;;;0.25;;
39898;SDS011;25571;47.876;10.642;2023-03-25T07:49:30;0.63;;;0.22;;
39898;SDS011;25571;47.876;10.642;2023-03-25T07:51:56;0.70;;;0.28;;
39898;SDS011;25571;47.876;10.642;2023-03-25T07:54:21;1.02;;;0.68;;
39898;SDS011;25571;47.876;10.642;2023-03-25T07:56:48;0.10;;;0.10;;
39898;SDS011;25571;47.876;10.642;2023-03-25T07:59:16;0.13;;;0.10;;
39898;SDS011;25571;47.876;10.642;2023-03-25T08:01:42;0.10;;;0.10;;
39898;SDS011;25571;47.876;10.642;2023-03-25T08:04:09;0.20;;;0.20;;
39898;SDS011;25571;47.876;10.642;2023-03-25T08:06:37;0.20;;;0.10;;
39898;SDS011;25571;47.876;10.642;2023-03-25T08:09:03;0.20;;;0.10;;
39898;SDS011;25571;47.876;10.642;2023-03-25T08:11:29;0.15;;;0.15;;
39898;SDS011;25571;47.876;10.642;2023-03-25T08:13:54;0.13;;;0.10;;
39898;SDS011;25571;47.876;10.642;2023-03-25T08:16:20;0.30;;;0.20;;
39898;SDS011;25571;47.876;10.642;2023-03-25T08:18:45;0.10;;;0.10;;
39898;SDS011;25571;47.876;10.642;2023-03-25T08:21:11;0.57;;;0.10;;
39898;SDS011;25571;47.876;10.642;2023-03-25T08:23:37;0.20;;;0.20;;
39898;SDS011;25571;47.876;10.642;2023-03-25T08:26:03;0.10;;;0.10;;
39898;SDS011;25571;47.876;10.642;2023-03-25T08:28:29;0.30;;;0.20;;
39898;SDS011;25571;47.876;10.642;2023-03-25T08:30:56;0.10;;;0.10;;
39898;SDS011;25571;47.876;10.642;2023-03-25T08:33:22;0.10;;;0.10;;
39898;SDS011;25571;47.876;10.642;2023-03-25T08:35:58;0.45;;;0.10;;
39898;SDS011;25571;47.876;10.642;2023-03-25T08:38:25;0.10;;;0.10;;
39898;SDS011;25571;47.876;10.642;2023-03-25T08:40:56;0.13;;;0.10;;
39898;SDS011;25571;47.876;10.642;2023-03-25T08:43:22;0.47;;;0.10;;
39898;SDS011;25571;47.876;10.642;2023-03-25T08:45:51;1.00;;;0.20;;
39898;SDS011;25571;47.876;10.642;2023-03-25T08:48:17;0.15;;;0.10;;
39898;SDS011;25571;47.876;10.642;2023-03-25T08:50:42;0.63;;;0.20;;
39898;SDS011;25571;47.876;10.642;2023-03-25T08:53:08;0.70;;;0.20;;
39898;SDS011;25571;47.876;10.642;2023-03-25T08:55:35;0.30;;;0.10;;
39898;SDS011;25571;47.876;10.642;2023-03-25T08:58:03;0.30;;;0.20;;
39898;SDS011;25571;47.876;10.642;2023-03-25T09:00:30;0.75;;;0.20;;
39898;SDS011;25571;47.876;10.642;2023-03-25T09:02:56;1.25;;;0.20;;
39898;SDS011;25571;47.876;10.642;2023-03-25T09:05:23;0.40;;;0.20;;
39898;SDS011;25571;47.876;10.642;2023-03-25T09:07:49;0.80;;;0.30;;
39898;SDS011;25571;47.876;10.642;2023-03-25T09:10:15;0.20;;;0.20;;
39898;SDS011;25571;47.876;10.642;2023-03-25T09:12:40;0.77;;;0.25;;
39898;SDS011;25571;47.876;10.642;2023-03-25T09:15:06;1.90;;;0.20;;
39898;SDS011;25571;47.876;10.642;2023-03-25T09:17:33;0.28;;;0.20;;
39898;SDS011;25571;47.876;10.642;2023-03-25T09:19:58;1.13;;;0.25;;
39898;SDS011;25571;47.876;10.642;2023-03-25T09:22:24;1.30;;;0.40;;
39898;SDS011;25571;47.876;10.642;2023-03-25T09:24:50;1.83;;;0.38;;
39898;SDS011;25571;47.876;10.642;2023-03-25T09:27:15;3.13;;;0.40;;
39898;SDS011;25571;47.876;10.642;2023-03-25T09:29:41;1.38;;;0.30;;
39898;SDS011;25571;47.876;10.642;2023-03-25T09:32:07;0.35;;;0.30;;
39898;SDS011;25571;47.876;10.642;2023-03-25T09:34:33;1.10;;;0.30;;
39898;SDS011;25571;47.876;10.642;2023-03-25T09:36:58;0.68;;;0.20;;
39898;SDS011;25571;47.876;10.642;2023-03-25T09:39:25;1.55;;;0.50;;
39898;SDS011;25571;47.876;10.642;2023-03-25T09:47:06;2.30;;;0.40;;
39898;SDS011;25571;47.876;10.642;2023-03-25T09:49:36;0.73;;;0.20;;
39898;SDS011;25571;47.876;10.642;2023-03-25T09:52:05;0.43;;;0.17;;
39898;SDS011;25571;47.876;10.642;2023-03-25T09:54:42;1.27;;;0.30;;
39898;SDS011;25571;47.876;10.642;2023-03-25T09:57:16;0.73;;;0.43;;
39898;SDS011;25571;47.876;10.642;2023-03-25T09:59:46;0.90;;;0.20;;
39898;SDS011;25571;47.876;10.642;2023-03-25T10:07:50;0.52;;;0.32;;
39898;SDS011;25571;47.876;10.642;2023-03-25T10:24:31;0.13;;;0.13;;
39898;SDS011;25571;47.876;10.642;2023-03-25T10:27:07;0.38;;;0.20;;
39898;SDS011;25571;47.876;10.642;2023-03-25T10:29:48;0.20;;;0.20;;
39898;SDS011;25571;47.876;10.642;2023-03-25T10:35:04;0.35;;;0.10;;
39898;SDS011;25571;47.876;10.642;2023-03-25T10:37:42;0.65;;;0.20;;
39898;SDS011;25571;47.876;10.642;2023-03-25T10:40:30;0.30;;;0.10;;
39898;SDS011;25571;47.876;10.642;2023-03-25T10:45:48;0.80;;;0.38;;
39898;SDS011;25571;47.876;10.642;2023-03-25T10:48:23;0.90;;;0.55;;
39898;SDS011;25571;47.876;10.642;2023-03-25T10:50:52;1.92;;;0.30;;
39898;SDS011;25571;47.876;10.642;2023-03-25T10:53:26;1.20;;;0.40;;
39898;SDS011;25571;47.876;10.642;2023-03-25T10:55:54;0.32;;;0.20;;
39898;SDS011;25571;47.876;10.642;2023-03-25T10:58:26;0.30;;;0.20;;
39898;SDS011;25571;47.876;10.642;2023-03-25T11:00:53;0.50;;;0.20;;
39898;SDS011;25571;47.876;10.642;2023-03-25T11:03:20;0.52;;;0.20;;
39898;SDS011;25571;47.876;10.642;2023-03-25T11:05:50;0.65;;;0.20;;
39898;SDS011;25571;47.876;10.642;2023-03-25T11:08:18;0.77;;;0.30;;
39898;SDS011;25571;47.876;10.642;2023-03-25T11:10:48;0.82;;;0.30;;
39898;SDS011;25571;47.876;10.642;2023-03-25T11:13:22;0.80;;;0.22;;
39898;SDS011;25571;47.876;10.642;2023-03-25T11:15:52;0.70;;;0.38;;
39898;SDS011;25571;47.876;10.642;2023-03-25T11:23:36;0.55;;;0.20;;
39898;SDS011;25571;47.876;10.642;2023-03-25T11:26:49;0.20;;;0.20;;
39898;SDS011;25571;47.876;10.642;2023-03-25T11:29:11;0.40;;;0.32;;
39898;SDS011;25571;47.876;10.642;2023-03-25T11:31:39;0.65;;;0.20;;
39898;SDS011;25571;47.876;10.642;2023-03-25T11:36:38;0.52;;;0.22;;
39898;SDS011;25571;47.876;10.642;2023-03-25T11:39:18;0.20;;;0.20;;
39898;SDS011;25571;47.876;10.642;2023-03-25T11:41:58;0.38;;;0.22;;
39898;SDS011;25571;47.876;10.642;2023-03-25T11:44:28;0.20;;;0.10;;
39898;SDS011;25571;47.876;10.642;2023-03-25T11:47:00;1.13;;;0.20;;
39898;SDS011;25571;47.876;10.642;2023-03-25T11:49:29;0.55;;;0.20;;
39898;SDS011;25571;47.876;10.642;2023-03-25T11:55:16;0.17;;;0.17;;
39898;SDS011;25571;47.876;10.642;2023-03-25T11:57:54;0.10;;;0.10;;
39898;SDS011;25571;47.876;10.642;2023-03-25T12:03:00;0.80;;;0.20;;
39898;SDS011;25571;47.876;10.642;2023-03-25T12:05:30;0.35;;;0.20;;
39898;SDS011;25571;47.876;10.642;2023-03-25T12:08:02;0.32;;;0.30;;
39898;SDS011;25571;47.876;10.642;2023-03-25T12:10:55;0.40;;;0.25;;
39898;SDS011;25571;47.876;10.642;2023-03-25T12:13:34;0.20;;;0.20;;
39898;SDS011;25571;47.876;10.642;2023-03-25T12:18:53;0.60;;;0.30;;
39898;SDS011;25571;47.876;10.642;2023-03-25T12:21:36;0.77;;;0.60;;
39898;SDS011;25571;47.876;10.642;2023-03-25T12:27:22;2.47;;;0.30;;
39898;SDS011;25571;47.876;10.642;2023-03-25T12:30:08;0.82;;;0.38;;
39898;SDS011;25571;47.876;10.642;2023-03-25T12:32:53;1.00;;;0.30;;
39898;SDS011;25571;47.876;10.642;2023-03-25T12:38:33;0.10;;;0.10;;
39898;SDS011;25571;47.876;10.642;2023-03-25T12:41:55;0.10;;;0.10;;
39898;SDS011;25571;47.876;10.642;2023-03-25T12:44:19;0.10;;;0.10;;
39898;SDS011;25571;47.876;10.642;2023-03-25T12:52:54;0.85;;;0.30;;
39898;SDS011;25571;47.876;10.642;2023-03-25T13:00:59;0.10;;;0.10;;
39898;SDS011;25571;47.876;10.642;2023-03-25T13:06:27;0.10;;;0.10;;
39898;SDS011;25571;47.876;10.642;2023-03-25T13:09:10;0.20;;;0.10;;
39898;SDS011;25571;47.876;10.642;2023-03-25T13:11:49;1.23;;;0.10;;
39898;SDS011;25571;47.876;10.642;2023-03-25T13:14:24;0.20;;;0.20;;
39898;SDS011;25571;47.876;10.642;2023-03-25T13:16:56;0.20;;;0.20;;
39898;SDS011;25571;47.876;10.642;2023-03-25T13:19:27;0.35;;;0.15;;
39898;SDS011;25571;47.876;10.642;2023-03-25T13:21:56;0.10;;;0.10;;
39898;SDS011;25571;47.876;10.642;2023-03-25T13:24:37;0.32;;;0.20;;
39898;SDS011;25571;47.876;10.642;2023-03-25T13:27:13;0.68;;;0.25;;
39898;SDS011;25571;47.876;10.642;2023-03-25T13:29:43;0.30;;;0.20;;
39898;SDS011;25571;47.876;10.642;2023-03-25T13:35:06;0.52;;;0.40;;
39898;SDS011;25571;47.876;10.642;2023-03-25T13:37:40;1.00;;;0.32;;
39898;SDS011;25571;47.876;10.642;2023-03-25T13:40:25;1.75;;;0.35;;
39898;SDS011;25571;47.876;10.642;2023-03-25T13:51:02;0.57;;;0.30;;
39898;SDS011;25571;47.876;10.642;2023-03-25T13:53:49;0.43;;;0.30;;
39898;SDS011;25571;47.876;10.642;2023-03-25T13:59:13;0.98;;;0.22;;
39898;SDS011;25571;47.876;10.642;2023-03-25T14:01:58;1.33;;;0.57;;
39898;SDS011;25571;47.876;10.642;2023-03-25T14:20:04;2.05;;;0.47;;
39898;SDS011;25571;47.876;10.642;2023-03-25T14:22:38;0.20;;;0.20;;
39898;SDS011;25571;47.876;10.642;2023-03-25T14:25:13;0.35;;;0.30;;
39898;SDS011;25571;47.876;10.642;2023-03-25T14:27:51;1.42;;;0.77;;
39898;SDS011;25571;47.876;10.642;2023-03-25T14:30:25;0.82;;;0.30;;
39898;SDS011;25571;47.876;10.642;2023-03-25T14:32:53;0.80;;;0.40;;
39898;SDS011;25571;47.876;10.642;2023-03-25T14:43:17;1.00;;;0.40;;
39898;SDS011;25571;47.876;10.642;2023-03-25T14:48:33;0.50;;;0.40;;
39898;SDS011;25571;47.876;10.642;2023-03-25T14:56:36;0.70;;;0.38;;
39898;SDS011;25571;47.876;10.642;2023-03-25T14:59:11;0.57;;;0.40;;
39898;SDS011;25571;47.876;10.642;2023-03-25T15:01:41;0.57;;;0.50;;
39898;SDS011;25571;47.876;10.642;2023-03-25T15:06:46;0.50;;;0.40;;
39898;SDS011;25571;47.876;10.642;2023-03-25T15:09:13;0.43;;;0.40;;
39898;SDS011;25571;47.876;10.642;2023-03-25T15:11:41;0.40;;;0.40;;
39898;SDS011;25571;47.876;10.642;2023-03-25T15:14:11;1.15;;;0.60;;
39898;SDS011;25571;47.876;10.642;2023-03-25T15:19:16;0.85;;;0.60;;
39898;SDS011;25571;47.876;10.642;2023-03-25T15:24:30;0.95;;;0.50;;
39898;SDS011;25571;47.876;10.642;2023-03-25T15:26:58;0.73;;;0.43;;
39898;SDS011;25571;47.876;10.642;2023-03-25T15:35:53;0.77;;;0.40;;
39898;SDS011;25571;47.876;10.642;2023-03-25T15:38:46;0.82;;;0.40;;
39898;SDS011;25571;47.876;10.642;2023-03-25T15:54:59;0.73;;;0.50;;
39898;SDS011;25571;47.876;10.642;2023-03-25T15:57:33;0.68;;;0.45;;
39898;SDS011;25571;47.876;10.642;2023-03-25T16:05:26;0.68;;;0.65;;
39898;SDS011;25571;47.876;10.642;2023-03-25T16:07:56;0.40;;;0.30;;
39898;SDS011;25571;47.876;10.642;2023-03-25T16:10:26;0.98;;;0.63;;
39898;SDS011;25571;47.876;10.642;2023-03-25T16:12:55;0.32;;;0.32;;
39898;SDS011;25571;47.876;10.642;2023-03-25T16:15:24;0.60;;;0.47;;
39898;SDS011;25571;47.876;10.642;2023-03-25T16:17:52;1.95;;;0.63;;
39898;SDS011;25571;47.876;10.642;2023-03-25T16:20:21;0.28;;;0.20;;
39898;SDS011;25571;47.876;10.642;2023-03-25T16:22:49;1.58;;;0.40;;
39898;SDS011;25571;47.876;10.642;2023-03-25T16:25:22;1.70;;;0.60;;
39898;SDS011;25571;47.876;10.642;2023-03-25T16:27:54;0.57;;;0.52;;
39898;SDS011;25571;47.876;10.642;2023-03-25T16:30:22;1.08;;;0.40;;
39898;SDS011;25571;47.876;10.642;2023-03-25T16:35:42;0.82;;;0.43;;
39898;SDS011;25571;47.876;10.642;2023-03-25T16:38:20;0.98;;;0.63;;
39898;SDS011;25571;47.876;10.642;2023-03-25T16:40:47;0.80;;;0.50;;
39898;SDS011;25571;47.876;10.642;2023-03-25T16:43:21;0.82;;;0.52;;
39898;SDS011;25571;47.876;10.642;2023-03-25T16:45:48;0.68;;;0.40;;
39898;SDS011;25571;47.876;10.642;2023-03-25T16:48:16;1.17;;;0.57;;
39898;SDS011;25571;47.876;10.642;2023-03-25T16:50:47;0.98;;;0.40;;
39898;SDS011;25571;47.876;10.642;2023-03-25T16:53:16;0.98;;;0.30;;
39898;SDS011;25571;47.876;10.642;2023-03-25T16:58:16;0.38;;;0.20;;
39898;SDS011;25571;47.876;10.642;2023-03-25T17:00:48;0.32;;;0.30;;
39898;SDS011;25571;47.876;10.642;2023-03-25T17:03:17;1.13;;;0.38;;
39898;SDS011;25571;47.876;10.642;2023-03-25T17:06:10;0.70;;;0.40;;
39898;SDS011;25571;47.876;10.642;2023-03-25T17:08:37;0.55;;;0.30;;
39898;SDS011;25571;47.876;10.642;2023-03-25T17:11:03;1.02;;;0.43;;
39898;SDS011;25571;47.876;10.642;2023-03-25T17:13:52;0.40;;;0.30;;
39898;SDS011;25571;47.876;10.642;2023-03-25T17:16:22;0.30;;;0.25;;
39898;SDS011;25571;47.876;10.642;2023-03-25T17:18:53;0.68;;;0.30;;
39898;SDS011;25571;47.876;10.642;2023-03-25T17:21:28;0.30;;;0.20;;
39898;SDS011;25571;47.876;10.642;2023-03-25T17:23:56;0.50;;;0.30;;
39898;SDS011;25571;47.876;10.642;2023-03-25T17:26:25;0.30;;;0.30;;
39898;SDS011;25571;47.876;10.642;2023-03-25T17:29:00;0.77;;;0.50;;
39898;SDS011;25571;47.876;10.642;2023-03-25T17:31:37;0.40;;;0.30;;
39898;SDS011;25571;47.876;10.642;2023-03-25T17:36:37;0.22;;;0.20;;
39898;SDS011;25571;47.876;10.642;2023-03-25T17:39:12;0.20;;;0.20;;
39898;SDS011;25571;47.876;10.642;2023-03-25T17:44:24;1.13;;;0.43;;
39898;SDS011;25571;47.876;10.642;2023-03-25T17:46:55;1.02;;;0.50;;
39898;SDS011;25571;47.876;10.642;2023-03-25T17:49:21;0.90;;;0.60;;
39898;SDS011;25571;47.876;10.642;2023-03-25T17:51:47;0.80;;;0.60;;
39898;SDS011;25571;47.876;10.642;2023-03-25T17:54:13;1.13;;;0.40;;
39898;SDS011;25571;47.876;10.642;2023-03-25T17:56:39;0.55;;;0.40;;
39898;SDS011;25571;47.876;10.642;2023-03-25T17:59:18;1.00;;;0.50;;
39898;SDS011;25571;47.876;10.642;2023-03-25T18:01:45;1.15;;;0.68;;
39898;SDS011;25571;47.876;10.642;2023-03-25T18:04:13;0.70;;;0.60;;
39898;SDS011;25571;47.876;10.642;2023-03-25T18:06:40;4.88;;;2.70;;
39898;SDS011;25571;47.876;10.642;2023-03-25T18:09:09;5.07;;;3.22;;
39898;SDS011;25571;47.876;10.642;2023-03-25T18:11:38;1.27;;;0.90;;